sensor_id;sensor_type;location;lat;lon;timestamp;pressure;altitude;pressure_sealevel;temperature;humidity
24746;BME280;12845;52.042;6.838;2022-08-21T00:00:23;68470.59;;;15.32;95.36
24746;BME280;12845;52.042;6.838;2022-08-21T00:05:18;68466.28;;;15.23;95.72
24746;BME280;12845;52.042;6.838;2022-08-21T00:10:10;68457.75;;;15.16;95.50
24746;BME280;12845;52.042;6.838;2022-08-21T00:12:35;68452.63;;;15.11;95.69
24746;BME280;12845;52.042;6.838;2022-08-21T00:15:01;68448.97;;;15.12;95.91
24746;BME280;12845;52.042;6.838;2022-08-21T00:17:27;68449.22;;;15.08;95.43
24746;BME280;12845;52.042;6.838;2022-08-21T00:19:52;68440.66;;;15.00;96.32
24746;BME280;12845;52.042;6.838;2022-08-21T00:22:17;68438.38;;;14.98;96.09
24746;BME280;12845;52.042;6.838;2022-08-21T00:24:43;68431.31;;;14.97;96.04
24746;BME280;12845;52.042;6.838;2022-08-21T00:31:59;68413.09;;;14.80;96.40
24746;BME280;12845;52.042;6.838;2022-08-21T00:34:25;68406.81;;;14.75;96.98
24746;BME280;12845;52.042;6.838;2022-08-21T00:36:50;68407.66;;;14.71;97.58
24746;BME280;12845;52.042;6.838;2022-08-21T00:39:15;68407.66;;;14.71;97.68
24746;BME280;12845;52.042;6.838;2022-08-21T00:41:42;68409.34;;;14.72;96.83
24746;BME280;12845;52.042;6.838;2022-08-21T00:44:10;68406.50;;;14.70;97.11
24746;BME280;12845;52.042;6.838;2022-08-21T00:46:36;68392.59;;;14.62;97.26
24746;BME280;12845;52.042;6.838;2022-08-21T00:49:04;68388.59;;;14.58;97.48
24746;BME280;12845;52.042;6.838;2022-08-21T00:54:03;68384.84;;;14.50;97.65
24746;BME280;12845;52.042;6.838;2022-08-21T00:58:55;68372.91;;;14.39;98.85
24746;BME280;12845;52.042;6.838;2022-08-21T01:01:22;68360.88;;;14.36;98.71
24746;BME280;12845;52.042;6.838;2022-08-21T01:03:48;68370.03;;;14.37;99.00
24746;BME280;12845;52.042;6.838;2022-08-21T01:06:14;68369.88;;;14.34;98.52
24746;BME280;12845;52.042;6.838;2022-08-21T01:08:39;68366.06;;;14.33;98.81
24746;BME280;12845;52.042;6.838;2022-08-21T01:13:34;68349.56;;;14.18;99.22
24746;BME280;12845;52.042;6.838;2022-08-21T01:18:28;68345.56;;;14.15;99.13
24746;BME280;12845;52.042;6.838;2022-08-21T01:23:33;68342.16;;;14.12;99.15
24746;BME280;12845;52.042;6.838;2022-08-21T01:25:59;68333.38;;;14.09;99.23
24746;BME280;12845;52.042;6.838;2022-08-21T01:28:24;68336.47;;;14.07;99.17
24746;BME280;12845;52.042;6.838;2022-08-21T01:33:18;68338.97;;;14.04;99.93
24746;BME280;12845;52.042;6.838;2022-08-21T01:38:10;68315.41;;;13.88;100.00
24746;BME280;12845;52.042;6.838;2022-08-21T01:43:02;68315.25;;;13.85;100.00
24746;BME280;12845;52.042;6.838;2022-08-21T01:45:28;68313.13;;;13.86;100.00
24746;BME280;12845;52.042;6.838;2022-08-21T01:52:45;68309.00;;;13.80;100.00
24746;BME280;12845;52.042;6.838;2022-08-21T02:00:06;68301.78;;;13.75;100.00
24746;BME280;12845;52.042;6.838;2022-08-21T02:02:33;68294.94;;;13.69;100.00
24746;BME280;12845;52.042;6.838;2022-08-21T02:04:58;68293.78;;;13.68;100.00
24746;BME280;12845;52.042;6.838;2022-08-21T02:09:49;68292.09;;;13.67;100.00
24746;BME280;12845;52.042;6.838;2022-08-21T02:17:05;68283.00;;;13.59;100.00
24746;BME280;12845;52.042;6.838;2022-08-21T02:19:31;68277.09;;;13.58;100.00
24746;BME280;12845;52.042;6.838;2022-08-21T02:21:56;68280.53;;;13.54;100.00
24746;BME280;12845;52.042;6.838;2022-08-21T02:24:21;68273.91;;;13.50;100.00
24746;BME280;12845;52.042;6.838;2022-08-21T02:26:47;68270.47;;;13.47;100.00
24746;BME280;12845;52.042;6.838;2022-08-21T02:29:12;68265.69;;;13.48;100.00
24746;BME280;12845;52.042;6.838;2022-08-21T02:31:38;68269.34;;;13.46;100.00
24746;BME280;12845;52.042;6.838;2022-08-21T02:34:03;68253.91;;;13.40;100.00
24746;BME280;12845;52.042;6.838;2022-08-21T02:36:29;68256.84;;;13.35;100.00
24746;BME280;12845;52.042;6.838;2022-08-21T02:38:54;68257.78;;;13.34;100.00
24746;BME280;12845;52.042;6.838;2022-08-21T02:41:21;68249.78;;;13.34;100.00
24746;BME280;12845;52.042;6.838;2022-08-21T02:46:16;68252.09;;;13.28;100.00
24746;BME280;12845;52.042;6.838;2022-08-21T02:48:42;68245.44;;;13.25;100.00
24746;BME280;12845;52.042;6.838;2022-08-21T02:51:17;68246.03;;;13.25;100.00
24746;BME280;12845;52.042;6.838;2022-08-21T02:56:12;68240.72;;;13.18;100.00
24746;BME280;12845;52.042;6.838;2022-08-21T02:58:43;68242.25;;;13.17;100.00
24746;BME280;12845;52.042;6.838;2022-08-21T03:01:09;68228.72;;;13.15;100.00
24746;BME280;12845;52.042;6.838;2022-08-21T03:03:37;68224.72;;;13.11;100.00
24746;BME280;12845;52.042;6.838;2022-08-21T03:06:05;68228.78;;;13.07;100.00
24746;BME280;12845;52.042;6.838;2022-08-21T03:10:56;68217.91;;;13.05;100.00
24746;BME280;12845;52.042;6.838;2022-08-21T03:13:21;68219.84;;;13.02;100.00
24746;BME280;12845;52.042;6.838;2022-08-21T03:18:13;68215.13;;;12.95;100.00
24746;BME280;12845;52.042;6.838;2022-08-21T03:20:40;68205.41;;;12.94;100.00
24746;BME280;12845;52.042;6.838;2022-08-21T03:23:06;68203.13;;;12.92;100.00
24746;BME280;12845;52.042;6.838;2022-08-21T03:27:59;68202.81;;;12.86;100.00
24746;BME280;12845;52.042;6.838;2022-08-21T03:32:50;68204.16;;;12.83;100.00
24746;BME280;12845;52.042;6.838;2022-08-21T03:35:17;68187.78;;;12.78;100.00
24746;BME280;12845;52.042;6.838;2022-08-21T03:37:43;68189.72;;;12.75;100.00
24746;BME280;12845;52.042;6.838;2022-08-21T03:42:36;68178.69;;;12.70;100.00
24746;BME280;12845;52.042;6.838;2022-08-21T03:47:27;68180.47;;;12.64;100.00
24746;BME280;12845;52.042;6.838;2022-08-21T03:52:18;68177.59;;;12.61;100.00
24746;BME280;12845;52.042;6.838;2022-08-21T03:57:10;68169.81;;;12.57;100.00
24746;BME280;12845;52.042;6.838;2022-08-21T03:59:36;68165.84;;;12.53;100.00
24746;BME280;12845;52.042;6.838;2022-08-21T04:02:03;68161.31;;;12.49;100.00
24746;BME280;12845;52.042;6.838;2022-08-21T04:04:29;68161.88;;;12.50;100.00
24746;BME280;12845;52.042;6.838;2022-08-21T04:06:56;68157.91;;;12.46;100.00
24746;BME280;12845;52.042;6.838;2022-08-21T04:09:22;68153.91;;;12.42;100.00
24746;BME280;12845;52.042;6.838;2022-08-21T04:11:48;68148.25;;;12.37;100.00
24746;BME280;12845;52.042;6.838;2022-08-21T04:14:14;68141.41;;;12.31;100.00
24746;BME280;12845;52.042;6.838;2022-08-21T04:16:40;68140.84;;;12.31;100.00
24746;BME280;12845;52.042;6.838;2022-08-21T04:21:32;68140.28;;;12.30;100.00
24746;BME280;12845;52.042;6.838;2022-08-21T04:23:57;68138.41;;;12.26;100.00
24746;BME280;12845;52.042;6.838;2022-08-21T04:26:23;68138.56;;;12.29;100.00
24746;BME280;12845;52.042;6.838;2022-08-21T04:28:48;68132.66;;;12.28;100.00
24746;BME280;12845;52.042;6.838;2022-08-21T04:36:05;68135.16;;;12.26;100.00
24746;BME280;12845;52.042;6.838;2022-08-21T04:40:57;68134.03;;;12.25;100.00
24746;BME280;12845;52.042;6.838;2022-08-21T04:43:23;68132.31;;;12.23;100.00
24746;BME280;12845;52.042;6.838;2022-08-21T04:45:50;68127.78;;;12.19;100.00
24746;BME280;12845;52.042;6.838;2022-08-21T04:51:13;68131.59;;;12.20;100.00
24746;BME280;12845;52.042;6.838;2022-08-21T04:53:47;68129.47;;;12.21;100.00
24746;BME280;12845;52.042;6.838;2022-08-21T04:56:32;68134.03;;;12.25;100.00
24746;BME280;12845;52.042;6.838;2022-08-21T05:01:29;68141.81;;;12.29;100.00
24746;BME280;12845;52.042;6.838;2022-08-21T05:03:59;68136.31;;;12.27;100.00
24746;BME280;12845;52.042;6.838;2022-08-21T05:08:53;68142.31;;;12.37;100.00
24746;BME280;12845;52.042;6.838;2022-08-21T05:11:20;68148.25;;;12.37;100.00
24746;BME280;12845;52.042;6.838;2022-08-21T05:13:47;68146.88;;;12.41;100.00
24746;BME280;12845;52.042;6.838;2022-08-21T05:16:13;68159.59;;;12.48;100.00
24746;BME280;12845;52.042;6.838;2022-08-21T05:18:39;68166.41;;;12.54;100.00
24746;BME280;12845;52.042;6.838;2022-08-21T05:25:55;68184.59;;;12.70;100.00
24746;BME280;12845;52.042;6.838;2022-08-21T05:28:21;68184.03;;;12.70;100.00
24746;BME280;12845;52.042;6.838;2022-08-21T05:30:46;68195.97;;;12.80;100.00
24746;BME280;12845;52.042;6.838;2022-08-21T05:35:37;68232.75;;;13.11;100.00
24746;BME280;12845;52.042;6.838;2022-08-21T05:40:29;68257.75;;;13.41;100.00
24746;BME280;12845;52.042;6.838;2022-08-21T05:42:55;68277.31;;;13.53;100.00
24746;BME280;12845;52.042;6.838;2022-08-21T05:45:33;68293.22;;;13.68;100.00
24746;BME280;12845;52.042;6.838;2022-08-21T05:48:06;68310.72;;;13.81;100.00
24746;BME280;12845;52.042;6.838;2022-08-21T05:50:31;68318.84;;;13.91;100.00
24746;BME280;12845;52.042;6.838;2022-08-21T06:00:13;68367.75;;;14.35;100.00
24746;BME280;12845;52.042;6.838;2022-08-21T06:02:40;68377.22;;;14.48;100.00
24746;BME280;12845;52.042;6.838;2022-08-21T06:05:06;68393.97;;;14.58;100.00
24746;BME280;12845;52.042;6.838;2022-08-21T06:09:57;68418.22;;;14.85;99.48
24746;BME280;12845;52.042;6.838;2022-08-21T06:12:22;68437.06;;;14.95;98.83
24746;BME280;12845;52.042;6.838;2022-08-21T06:14:48;68444.41;;;15.08;98.21
24746;BME280;12845;52.042;6.838;2022-08-21T06:17:13;68451.41;;;15.17;98.01
24746;BME280;12845;52.042;6.838;2022-08-21T06:19:40;68464.34;;;15.26;97.15
24746;BME280;12845;52.042;6.838;2022-08-21T06:22:06;68477.44;;;15.38;96.54
24746;BME280;12845;52.042;6.838;2022-08-21T06:24:31;68489.56;;;15.51;96.38
24746;BME280;12845;52.042;6.838;2022-08-21T06:26:57;68507.06;;;15.65;95.67
24746;BME280;12845;52.042;6.838;2022-08-21T06:36:40;68559.50;;;16.12;92.13
24746;BME280;12845;52.042;6.838;2022-08-21T06:39:06;68572.03;;;16.23;91.69
24746;BME280;12845;52.042;6.838;2022-08-21T06:43:57;68609.91;;;16.52;90.55
24746;BME280;12845;52.042;6.838;2022-08-21T06:46:24;68608.53;;;16.56;90.02
24746;BME280;12845;52.042;6.838;2022-08-21T06:48:50;68619.94;;;16.66;89.48
24746;BME280;12845;52.042;6.838;2022-08-21T06:51:15;68635.91;;;16.80;88.58
24746;BME280;12845;52.042;6.838;2022-08-21T06:53:42;68660.69;;;16.98;87.53
24746;BME280;12845;52.042;6.838;2022-08-21T06:58:33;68688.94;;;17.28;86.74
24746;BME280;12845;52.042;6.838;2022-08-21T07:00:59;68703.22;;;17.41;85.93
24746;BME280;12845;52.042;6.838;2022-08-21T07:03:27;68719.16;;;17.55;85.39
24746;BME280;12845;52.042;6.838;2022-08-21T07:05:53;68731.88;;;17.69;84.70
24746;BME280;12845;52.042;6.838;2022-08-21T07:08:20;68747.41;;;17.75;83.61
24746;BME280;12845;52.042;6.838;2022-08-21T07:10:46;68757.44;;;17.89;83.97
24746;BME280;12845;52.042;6.838;2022-08-21T07:15:38;68774.00;;;18.04;82.60
24746;BME280;12845;52.042;6.838;2022-08-21T07:20:30;68791.09;;;18.19;81.73
24746;BME280;12845;52.042;6.838;2022-08-21T07:25:23;68809.38;;;18.36;80.54
24746;BME280;12845;52.042;6.838;2022-08-21T07:27:49;68815.66;;;18.41;80.25
24746;BME280;12845;52.042;6.838;2022-08-21T07:30:14;68827.31;;;18.47;79.53
24746;BME280;12845;52.042;6.838;2022-08-21T07:32:40;68831.06;;;18.55;79.21
24746;BME280;12845;52.042;6.838;2022-08-21T07:35:05;68836.78;;;18.60;78.44
24746;BME280;12845;52.042;6.838;2022-08-21T07:37:31;68840.19;;;18.63;78.12
24746;BME280;12845;52.042;6.838;2022-08-21T07:39:56;68855.13;;;18.69;77.73
24746;BME280;12845;52.042;6.838;2022-08-21T07:44:47;68849.00;;;18.66;76.90
24746;BME280;12845;52.042;6.838;2022-08-21T07:49:37;68867.06;;;18.87;76.89
24746;BME280;12845;52.042;6.838;2022-08-21T07:52:03;68864.38;;;18.87;75.79
24746;BME280;12845;52.042;6.838;2022-08-21T07:54:28;68864.78;;;18.85;75.43
24746;BME280;12845;52.042;6.838;2022-08-21T07:56:54;68873.34;;;18.93;76.31
24746;BME280;12845;52.042;6.838;2022-08-21T07:59:19;68873.34;;;18.93;75.35
24746;BME280;12845;52.042;6.838;2022-08-21T08:01:45;68877.91;;;18.97;74.40
24746;BME280;12845;52.042;6.838;2022-08-21T08:04:10;68876.78;;;18.96;74.63
24746;BME280;12845;52.042;6.838;2022-08-21T08:06:35;68883.63;;;19.02;74.01
24746;BME280;12845;52.042;6.838;2022-08-21T08:09:01;68885.91;;;19.04;74.39
24746;BME280;12845;52.042;6.838;2022-08-21T08:11:28;68897.91;;;19.15;73.60
24746;BME280;12845;52.042;6.838;2022-08-21T08:13:54;68907.59;;;19.24;73.86
24746;BME280;12845;52.042;6.838;2022-08-21T08:16:21;68899.63;;;19.16;74.17
24746;BME280;12845;52.042;6.838;2022-08-21T08:18:47;68909.34;;;19.25;74.03
24746;BME280;12845;52.042;6.838;2022-08-21T08:26:04;68918.03;;;19.35;74.21
24746;BME280;12845;52.042;6.838;2022-08-21T08:28:30;68935.03;;;19.48;73.54
24746;BME280;12845;52.042;6.838;2022-08-21T08:30:57;68932.75;;;19.46;73.48
24746;BME280;12845;52.042;6.838;2022-08-21T08:35:49;68939.19;;;19.54;71.38
24746;BME280;12845;52.042;6.838;2022-08-21T08:38:16;68927.59;;;19.42;71.22
24746;BME280;12845;52.042;6.838;2022-08-21T08:45:46;68932.19;;;19.46;71.99
24746;BME280;12845;52.042;6.838;2022-08-21T08:50:56;68960.78;;;19.71;70.33
24746;BME280;12845;52.042;6.838;2022-08-21T08:53:32;68967.34;;;19.82;69.41
24746;BME280;12845;52.042;6.838;2022-08-21T08:56:00;68976.94;;;19.88;68.31
24746;BME280;12845;52.042;6.838;2022-08-21T09:00:56;69004.78;;;20.11;67.18
24746;BME280;12845;52.042;6.838;2022-08-21T09:11:36;68969.91;;;19.79;67.15
24746;BME280;12845;52.042;6.838;2022-08-21T09:14:25;68949.66;;;19.66;67.68
24746;BME280;12845;52.042;6.838;2022-08-21T09:17:02;68965.34;;;19.75;68.17
24746;BME280;12845;52.042;6.838;2022-08-21T09:22:27;69011.63;;;20.17;67.03
24746;BME280;12845;52.042;6.838;2022-08-21T09:27:25;69011.91;;;20.12;65.47
24746;BME280;12845;52.042;6.838;2022-08-21T09:29:53;69015.06;;;20.20;65.07
24746;BME280;12845;52.042;6.838;2022-08-21T09:35:04;69044.78;;;20.46;64.89
24746;BME280;12845;52.042;6.838;2022-08-21T09:37:32;69058.53;;;20.59;63.78
24746;BME280;12845;52.042;6.838;2022-08-21T09:39:59;69077.97;;;20.76;64.36
24746;BME280;12845;52.042;6.838;2022-08-21T09:42:28;69082.56;;;20.80;63.49
24746;BME280;12845;52.042;6.838;2022-08-21T09:45:17;69093.41;;;20.90;62.85
24746;BME280;12845;52.042;6.838;2022-08-21T09:47:43;69091.69;;;20.88;62.89
24746;BME280;12845;52.042;6.838;2022-08-21T09:50:17;69099.44;;;21.00;61.66
24746;BME280;12845;52.042;6.838;2022-08-21T09:52:45;69100.28;;;20.96;60.48
24746;BME280;12845;52.042;6.838;2022-08-21T09:55:19;69086.00;;;20.83;60.64
24746;BME280;12845;52.042;6.838;2022-08-21T09:58:04;69099.31;;;20.98;60.81
24746;BME280;12845;52.042;6.838;2022-08-21T10:00:32;69124.88;;;21.18;59.36
24746;BME280;12845;52.042;6.838;2022-08-21T10:05:56;69130.59;;;21.23;59.24
24746;BME280;12845;52.042;6.838;2022-08-21T10:11:11;69134.34;;;21.31;58.04
24746;BME280;12845;52.042;6.838;2022-08-21T10:13:47;69155.22;;;21.45;57.97
24746;BME280;12845;52.042;6.838;2022-08-21T10:19:04;69179.41;;;21.69;56.05
24746;BME280;12845;52.042;6.838;2022-08-21T10:24:33;69197.88;;;21.88;57.06
24746;BME280;12845;52.042;6.838;2022-08-21T10:27:16;69201.56;;;21.86;55.09
24746;BME280;12845;52.042;6.838;2022-08-21T10:29:49;69201.56;;;21.86;55.95
24746;BME280;12845;52.042;6.838;2022-08-21T10:32:21;69232.47;;;22.14;53.84
24746;BME280;12845;52.042;6.838;2022-08-21T10:46:08;69309.38;;;22.85;53.67
24746;BME280;12845;52.042;6.838;2022-08-21T10:54:18;69301.19;;;22.75;53.38
24746;BME280;12845;52.042;6.838;2022-08-21T10:56:51;69312.97;;;22.91;52.40
24746;BME280;12845;52.042;6.838;2022-08-21T10:59:38;69332.16;;;23.03;51.55
24746;BME280;12845;52.042;6.838;2022-08-21T11:04:57;69346.22;;;23.20;51.06
24746;BME280;12845;52.042;6.838;2022-08-21T11:07:35;69375.13;;;23.41;51.56
24746;BME280;12845;52.042;6.838;2022-08-21T11:10:15;69351.38;;;23.25;52.58
24746;BME280;12845;52.042;6.838;2022-08-21T11:12:49;69386.16;;;23.54;52.83
24746;BME280;12845;52.042;6.838;2022-08-21T11:15:28;69413.53;;;23.76;50.83
24746;BME280;12845;52.042;6.838;2022-08-21T11:20:46;69386.75;;;23.54;52.18
24746;BME280;12845;52.042;6.838;2022-08-21T11:23:28;69370.69;;;23.40;52.55
24746;BME280;12845;52.042;6.838;2022-08-21T11:26:02;69355.66;;;23.24;52.87
24746;BME280;12845;52.042;6.838;2022-08-21T11:28:54;69348.34;;;23.20;52.91
24746;BME280;12845;52.042;6.838;2022-08-21T11:34:12;69376.00;;;23.47;53.04
24746;BME280;12845;52.042;6.838;2022-08-21T11:36:38;69388.59;;;23.58;53.34
24746;BME280;12845;52.042;6.838;2022-08-21T11:45:17;69368.97;;;23.38;51.67
24746;BME280;12845;52.042;6.838;2022-08-21T11:50:32;69357.94;;;23.26;53.80
24746;BME280;12845;52.042;6.838;2022-08-21T11:55:43;69375.84;;;23.45;54.90
24746;BME280;12845;52.042;6.838;2022-08-21T12:03:27;69430.75;;;23.91;52.70
24746;BME280;12845;52.042;6.838;2022-08-21T12:06:02;69436.75;;;24.01;51.94
24746;BME280;12845;52.042;6.838;2022-08-21T12:08:35;69437.78;;;24.00;50.89
24746;BME280;12845;52.042;6.838;2022-08-21T12:14:10;69446.78;;;24.05;52.82
24746;BME280;12845;52.042;6.838;2022-08-21T12:16:38;69455.53;;;24.16;51.88
24746;BME280;12845;52.042;6.838;2022-08-21T12:19:12;69471.59;;;24.30;51.62
24746;BME280;12845;52.042;6.838;2022-08-21T12:27:27;69488.94;;;24.48;50.79
24746;BME280;12845;52.042;6.838;2022-08-21T12:30:00;69495.53;;;24.49;50.18
24746;BME280;12845;52.042;6.838;2022-08-21T12:32:44;69519.03;;;24.70;48.74
24746;BME280;12845;52.042;6.838;2022-08-21T12:35:20;69527.94;;;24.83;49.83
24746;BME280;12845;52.042;6.838;2022-08-21T12:38:14;69490.66;;;24.49;49.01
24746;BME280;12845;52.042;6.838;2022-08-21T12:41:06;69474.59;;;24.35;49.78
24746;BME280;12845;52.042;6.838;2022-08-21T12:43:41;69497.56;;;24.56;50.24
24746;BME280;12845;52.042;6.838;2022-08-21T12:46:17;69508.88;;;24.63;49.50
24746;BME280;12845;52.042;6.838;2022-08-21T12:48:54;69492.69;;;24.46;49.31
24746;BME280;12845;52.042;6.838;2022-08-21T12:51:32;69484.50;;;24.46;50.13
24746;BME280;12845;52.042;6.838;2022-08-21T12:54:00;69513.03;;;24.69;48.28
24746;BME280;12845;52.042;6.838;2022-08-21T12:56:32;69518.19;;;24.74;49.58
24746;BME280;12845;52.042;6.838;2022-08-21T12:59:07;69476.91;;;24.37;49.59
24746;BME280;12845;52.042;6.838;2022-08-21T13:01:43;69491.81;;;24.50;50.39
24746;BME280;12845;52.042;6.838;2022-08-21T13:04:15;69524.94;;;24.77;49.53
24746;BME280;12845;52.042;6.838;2022-08-21T13:06:46;69537.69;;;24.91;48.65
24746;BME280;12845;52.042;6.838;2022-08-21T13:09:15;69572.13;;;25.22;47.72
24746;BME280;12845;52.042;6.838;2022-08-21T13:11:45;69583.00;;;25.32;46.50
24746;BME280;12845;52.042;6.838;2022-08-21T13:14:25;69565.81;;;25.16;47.32
24746;BME280;12845;52.042;6.838;2022-08-21T13:16:54;69559.47;;;25.11;45.93
24746;BME280;12845;52.042;6.838;2022-08-21T13:19:21;69570.53;;;25.23;47.63
24746;BME280;12845;52.042;6.838;2022-08-21T13:21:46;69604.09;;;25.48;46.09
24746;BME280;12845;52.042;6.838;2022-08-21T13:24:21;69618.31;;;25.58;46.47
24746;BME280;12845;52.042;6.838;2022-08-21T13:26:48;69601.94;;;25.49;46.59
24746;BME280;12845;52.042;6.838;2022-08-21T13:29:19;69641.97;;;25.82;45.76
24746;BME280;12845;52.042;6.838;2022-08-21T13:31:51;69670.13;;;26.07;44.78
24746;BME280;12845;52.042;6.838;2022-08-21T13:34:20;69674.72;;;26.11;43.76
24746;BME280;12845;52.042;6.838;2022-08-21T13:36:46;69686.47;;;26.26;43.49
24746;BME280;12845;52.042;6.838;2022-08-21T13:39:15;69654.22;;;25.95;43.60
24746;BME280;12845;52.042;6.838;2022-08-21T13:41:43;69641.25;;;25.79;44.36
24746;BME280;12845;52.042;6.838;2022-08-21T13:46:44;69622.31;;;25.62;43.15
24746;BME280;12845;52.042;6.838;2022-08-21T13:49:10;69632.78;;;25.74;44.54
24746;BME280;12845;52.042;6.838;2022-08-21T13:51:38;69639.09;;;25.79;44.08
24746;BME280;12845;52.042;6.838;2022-08-21T13:56:42;69657.50;;;25.96;42.90
24746;BME280;12845;52.042;6.838;2022-08-21T13:59:08;69656.34;;;25.95;43.35
24746;BME280;12845;52.042;6.838;2022-08-21T14:01:48;69620.16;;;25.62;43.80
24746;BME280;12845;52.042;6.838;2022-08-21T14:06:51;69631.81;;;25.75;44.50
24746;BME280;12845;52.042;6.838;2022-08-21T14:09:31;69630.22;;;25.76;44.46
24746;BME280;12845;52.042;6.838;2022-08-21T14:11:58;69619.75;;;25.64;44.23
24746;BME280;12845;52.042;6.838;2022-08-21T14:14:32;69636.94;;;25.80;42.93
24746;BME280;12845;52.042;6.838;2022-08-21T14:17:05;69652.63;;;25.96;42.67
24746;BME280;12845;52.042;6.838;2022-08-21T14:19:40;69675.44;;;26.14;44.26
24746;BME280;12845;52.042;6.838;2022-08-21T14:24:47;69659.94;;;26.00;42.24
24746;BME280;12845;52.042;6.838;2022-08-21T14:27:17;69672.41;;;26.09;44.05
24746;BME280;12845;52.042;6.838;2022-08-21T14:29:43;69601.22;;;25.46;42.44
24746;BME280;12845;52.042;6.838;2022-08-21T14:32:22;69688.06;;;26.25;44.52
24746;BME280;12845;52.042;6.838;2022-08-21T14:34:51;69726.69;;;26.62;43.14
24746;BME280;12845;52.042;6.838;2022-08-21T14:37:16;69726.53;;;26.60;40.27
24746;BME280;12845;52.042;6.838;2022-08-21T14:39:41;69719.66;;;26.53;42.73
24746;BME280;12845;52.042;6.838;2022-08-21T14:42:07;69756.13;;;26.81;40.61
24746;BME280;12845;52.042;6.838;2022-08-21T14:44:33;69740.19;;;26.69;40.99
24746;BME280;12845;52.042;6.838;2022-08-21T14:46:59;69750.97;;;26.76;41.88
24746;BME280;12845;52.042;6.838;2022-08-21T14:49:26;69764.88;;;26.91;41.43
24746;BME280;12845;52.042;6.838;2022-08-21T14:51:53;69709.31;;;26.44;42.04
24746;BME280;12845;52.042;6.838;2022-08-21T14:54:26;69670.25;;;26.09;41.15
24746;BME280;12845;52.042;6.838;2022-08-21T14:56:51;69705.13;;;26.38;42.65
24746;BME280;12845;52.042;6.838;2022-08-21T14:59:17;69677.00;;;26.13;41.22
24746;BME280;12845;52.042;6.838;2022-08-21T15:01:44;69701.13;;;26.34;42.74
24746;BME280;12845;52.042;6.838;2022-08-21T15:04:10;69699.53;;;26.36;42.26
24746;BME280;12845;52.042;6.838;2022-08-21T15:06:36;69712.59;;;26.45;42.58
24746;BME280;12845;52.042;6.838;2022-08-21T15:09:02;69712.16;;;26.47;41.42
24746;BME280;12845;52.042;6.838;2022-08-21T15:11:30;69694.22;;;26.28;42.09
24746;BME280;12845;52.042;6.838;2022-08-21T15:13:57;69678.88;;;26.17;40.81
24746;BME280;12845;52.042;6.838;2022-08-21T15:16:26;69699.53;;;26.36;40.40
24746;BME280;12845;52.042;6.838;2022-08-21T15:18:53;69679.88;;;26.16;43.23
24746;BME280;12845;52.042;6.838;2022-08-21T15:21:18;69673.56;;;26.10;42.05
24746;BME280;12845;52.042;6.838;2022-08-21T15:23:43;69662.66;;;26.00;41.80
24746;BME280;12845;52.042;6.838;2022-08-21T15:26:09;69665.09;;;26.05;42.64
24746;BME280;12845;52.042;6.838;2022-08-21T15:28:35;69684.91;;;26.18;43.49
24746;BME280;12845;52.042;6.838;2022-08-21T15:31:01;69676.88;;;26.10;42.79
24746;BME280;12845;52.042;6.838;2022-08-21T15:33:27;69727.13;;;26.60;41.16
24746;BME280;12845;52.042;6.838;2022-08-21T15:35:53;69760.88;;;26.88;40.49
24746;BME280;12845;52.042;6.838;2022-08-21T15:38:18;69744.22;;;26.73;41.09
24746;BME280;12845;52.042;6.838;2022-08-21T15:40:44;69717.63;;;26.47;41.62
24746;BME280;12845;52.042;6.838;2022-08-21T15:43:21;69716.78;;;26.51;40.24
24746;BME280;12845;52.042;6.838;2022-08-21T15:45:47;69735.16;;;26.67;41.64
24746;BME280;12845;52.042;6.838;2022-08-21T15:48:12;69769.03;;;26.97;41.50
24746;BME280;12845;52.042;6.838;2022-08-21T15:50:38;69769.91;;;26.93;40.92
24746;BME280;12845;52.042;6.838;2022-08-21T15:53:03;69777.09;;;27.05;41.23
24746;BME280;12845;52.042;6.838;2022-08-21T15:55:29;69753.09;;;26.86;40.39
24746;BME280;12845;52.042;6.838;2022-08-21T15:57:54;69731.44;;;26.59;41.48
24746;BME280;12845;52.042;6.838;2022-08-21T16:00:24;69728.72;;;26.59;41.35
24746;BME280;12845;52.042;6.838;2022-08-21T16:02:52;69713.88;;;26.48;42.74
24746;BME280;12845;52.042;6.838;2022-08-21T16:05:19;69699.97;;;26.33;39.63
24746;BME280;12845;52.042;6.838;2022-08-21T16:07:46;69668.97;;;26.06;40.92
24746;BME280;12845;52.042;6.838;2022-08-21T16:10:13;69640.41;;;25.83;42.11
24746;BME280;12845;52.042;6.838;2022-08-21T16:12:45;69668.53;;;26.08;42.51
24746;BME280;12845;52.042;6.838;2022-08-21T16:15:12;69664.97;;;26.02;40.72
24746;BME280;12845;52.042;6.838;2022-08-21T16:17:39;69673.13;;;26.12;42.24
24746;BME280;12845;52.042;6.838;2022-08-21T16:20:08;69674.72;;;26.11;42.16
24746;BME280;12845;52.042;6.838;2022-08-21T16:22:34;69636.94;;;25.80;42.31
24746;BME280;12845;52.042;6.838;2022-08-21T16:24:59;69654.78;;;25.96;41.19
24746;BME280;12845;52.042;6.838;2022-08-21T16:27:25;69637.53;;;25.80;39.71
24746;BME280;12845;52.042;6.838;2022-08-21T16:29:50;69636.38;;;25.79;41.22
24746;BME280;12845;52.042;6.838;2022-08-21T16:32:16;69633.50;;;25.77;41.17
24746;BME280;12845;52.042;6.838;2022-08-21T16:34:45;69636.81;;;25.77;42.10
24746;BME280;12845;52.042;6.838;2022-08-21T16:37:14;69664.38;;;26.02;42.04
24746;BME280;12845;52.042;6.838;2022-08-21T16:39:39;69666.81;;;26.06;41.35
24746;BME280;12845;52.042;6.838;2022-08-21T16:42:05;69635.25;;;25.78;41.18
24746;BME280;12845;52.042;6.838;2022-08-21T16:44:31;69617.44;;;25.62;41.96
24746;BME280;12845;52.042;6.838;2022-08-21T16:46:58;69599.06;;;25.46;41.85
24746;BME280;12845;52.042;6.838;2022-08-21T16:49:24;69600.25;;;25.47;42.57
24746;BME280;12845;52.042;6.838;2022-08-21T16:51:50;69600.66;;;25.45;43.16
24746;BME280;12845;52.042;6.838;2022-08-21T16:54:15;69594.34;;;25.39;44.40
24746;BME280;12845;52.042;6.838;2022-08-21T16:56:40;69598.34;;;25.43;42.75
24746;BME280;12845;52.042;6.838;2022-08-21T16:59:06;69582.44;;;25.31;44.09
24746;BME280;12845;52.042;6.838;2022-08-21T17:01:33;69577.28;;;25.27;44.52